Time;durP1;ratioP1;P1;durP2;ratioP2;P2;SDS_P1;SDS_P2;PMS_P1;PMS_P2;Temp;Humidity;BMP_temperature;BMP_pressure;BME280_temperature;BME280_humidity;BME280_pressure;Samples;Min_cycle;Max_cycle;Signal;HPM_P1;HPM_P2
2021/05/31 00:02:04;;;;;;;5.53;2.50;;;12.70;57.40;;;;;;5036018;28;20211;-76
2021/05/31 00:04:30;;;;;;;6.27;3.00;;;12.60;57.20;;;;;;5042030;28;20555;-75
2021/05/31 00:06:58;;;;;;;5.07;2.90;;;12.70;56.10;;;;;;5033514;28;20458;-74
2021/05/31 00:09:24;;;;;;;2.70;2.30;;;12.70;56.10;;;;;;5036861;28;20554;-76
2021/05/31 00:11:51;;;;;;;4.27;2.90;;;12.70;56.00;;;;;;5047260;28;20456;-75
2021/05/31 00:14:16;;;;;;;6.33;3.20;;;12.80;55.80;;;;;;5031743;28;20193;-75
2021/05/31 00:16:42;;;;;;;4.13;2.43;;;12.80;55.70;;;;;;5035877;28;20497;-75
2021/05/31 00:19:09;;;;;;;5.03;2.90;;;12.80;55.60;;;;;;5038752;28;20180;-75
2021/05/31 00:21:36;;;;;;;4.97;2.70;;;12.90;55.30;;;;;;5030140;28;20974;-76
2021/05/31 00:24:02;;;;;;;4.13;2.67;;;13.00;54.20;;;;;;5032312;28;20412;-76
2021/05/31 00:26:29;;;;;;;3.50;2.40;;;13.00;54.60;;;;;;5032364;28;20828;-77
2021/05/31 00:28:54;;;;;;;4.73;3.20;;;13.00;54.40;;;;;;5031499;28;20505;-75
2021/05/31 00:31:20;;;;;;;4.63;2.60;;;13.00;54.20;;;;;;5039314;28;20947;-74
2021/05/31 00:33:46;;;;;;;3.50;2.70;;;12.90;54.10;;;;;;5034453;28;20224;-74
2021/05/31 00:36:12;;;;;;;3.80;2.53;;;12.90;54.20;;;;;;5038812;28;20927;-76
2021/05/31 00:38:39;;;;;;;5.47;2.53;;;12.90;54.40;;;;;;5038114;28;20188;-74
2021/05/31 00:41:06;;;;;;;4.60;2.77;;;12.90;54.60;;;;;;5042978;28;20182;-75
2021/05/31 00:43:34;;;;;;;5.17;3.17;;;12.90;54.90;;;;;;5032772;28;20420;-74
2021/05/31 00:46:10;;;;;;;4.13;2.73;;;12.90;54.90;;;;;;5043483;28;20428;-75
2021/05/31 00:48:37;;;;;;;3.30;2.40;;;12.90;54.40;;;;;;5035043;28;21009;-76
2021/05/31 00:51:08;;;;;;;5.03;2.60;;;12.90;54.90;;;;;;5041981;28;20477;-73
2021/05/31 00:53:34;;;;;;;4.90;2.70;;;12.90;55.30;;;;;;5056449;28;20430;-73
2021/05/31 00:56:00;;;;;;;4.80;3.20;;;12.80;55.20;;;;;;5055567;28;20491;-75
2021/05/31 00:58:28;;;;;;;5.27;3.07;;;12.80;55.40;;;;;;5046322;28;20527;-74
2021/05/31 01:00:55;;;;;;;5.10;2.47;;;12.70;55.70;;;;;;5042862;28;20438;-73
2021/05/31 01:03:21;;;;;;;3.90;2.70;;;12.70;56.00;;;;;;5050867;28;21002;-73
2021/05/31 01:05:48;;;;;;;4.90;3.10;;;12.60;56.50;;;;;;5050831;28;20769;-74
2021/05/31 01:08:26;;;;;;;4.90;2.90;;;12.50;56.60;;;;;;5037423;28;20419;-75
2021/05/31 01:11:10;;;;;;;3.80;2.60;;;12.50;56.90;;;;;;5043726;28;20434;-74
2021/05/31 01:13:39;;;;;;;4.30;3.33;;;12.40;57.40;;;;;;5029506;28;20434;-75
2021/05/31 01:16:11;;;;;;;5.70;2.97;;;12.30;57.70;;;;;;5037175;28;21266;-76
2021/05/31 01:18:46;;;;;;;8.83;3.00;;;12.30;58.10;;;;;;5039937;28;20787;-75
2021/05/31 01:21:42;;;;;;;5.73;3.47;;;12.20;59.10;;;;;;5053193;28;20418;-75
2021/05/31 01:24:43;;;;;;;5.30;3.20;;;12.10;59.60;;;;;;5038558;28;20419;-75
2021/05/31 01:27:26;;;;;;;7.57;4.03;;;12.10;60.40;;;;;;5009383;28;20464;-76
2021/05/31 01:30:07;;;;;;;12.17;4.70;;;11.90;60.40;;;;;;5006404;28;20521;-76
2021/05/31 01:32:37;;;;;;;8.43;3.73;;;11.80;61.00;;;;;;5012073;28;20931;-75
2021/05/31 01:35:06;;;;;;;11.33;5.50;;;11.70;61.60;;;;;;5009162;28;20462;-75
2021/05/31 01:37:34;;;;;;;8.40;4.47;;;11.60;62.00;;;;;;5008978;28;21058;-76
2021/05/31 01:40:06;;;;;;;5.40;3.50;;;11.50;62.60;;;;;;5008436;28;20432;-75
2021/05/31 01:42:32;;;;;;;6.60;3.20;;;11.50;62.80;;;;;;5008894;28;20441;-75
2021/05/31 01:44:59;;;;;;;5.80;3.60;;;11.40;63.20;;;;;;5008660;28;20433;-75
2021/05/31 01:47:26;;;;;;;5.43;3.10;;;11.40;63.50;;;;;;5008996;28;20870;-76
2021/05/31 01:49:54;;;;;;;6.67;3.07;;;11.30;63.70;;;;;;5008682;28;20874;-74
2021/05/31 01:52:23;;;;;;;4.60;2.70;;;11.30;63.90;;;;;;5008821;28;20516;-76
2021/05/31 01:54:54;;;;;;;6.27;3.10;;;11.20;63.50;;;;;;5021607;28;20436;-74
2021/05/31 01:57:21;;;;;;;5.70;3.13;;;11.10;64.20;;;;;;5008668;28;20535;-76
2021/05/31 01:59:47;;;;;;;5.33;3.20;;;11.10;64.80;;;;;;5009551;28;20428;-75
2021/05/31 02:02:13;;;;;;;7.50;3.23;;;11.10;65.10;;;;;;5041525;28;20430;-76
2021/05/31 02:04:39;;;;;;;3.30;2.67;;;11.00;65.30;;;;;;5033343;28;20420;-76
2021/05/31 02:07:05;;;;;;;10.43;3.00;;;11.00;65.30;;;;;;5044427;28;20536;-75
2021/05/31 02:09:31;;;;;;;3.20;2.40;;;10.90;65.40;;;;;;5039657;28;20197;-76
2021/05/31 02:12:02;;;;;;;3.73;2.40;;;10.80;65.70;;;;;;5033929;28;20203;-74
2021/05/31 02:14:42;;;;;;;4.70;2.90;;;10.80;66.10;;;;;;5034787;28;20185;-75
2021/05/31 02:17:24;;;;;;;4.80;2.60;;;10.70;66.30;;;;;;5040389;28;20997;-75
2021/05/31 02:19:55;;;;;;;7.77;2.80;;;10.60;66.10;;;;;;5028060;28;20436;-76
2021/05/31 02:22:22;;;;;;;6.80;3.10;;;10.60;66.70;;;;;;5039037;28;20427;-75
2021/05/31 02:24:50;;;;;;;6.97;3.30;;;10.50;66.90;;;;;;5043198;28;20424;-74
2021/05/31 02:27:16;;;;;;;4.63;2.93;;;10.40;66.70;;;;;;5033847;28;20467;-75
2021/05/31 02:29:42;;;;;;;3.93;2.87;;;10.40;67.20;;;;;;5036113;28;20435;-77
2021/05/31 02:32:08;;;;;;;5.10;2.70;;;10.30;67.50;;;;;;5043005;28;20467;-77
2021/05/31 02:34:34;;;;;;;3.93;2.57;;;10.30;67.70;;;;;;5031112;28;20427;-75
2021/05/31 02:37:00;;;;;;;5.00;2.83;;;10.30;67.70;;;;;;5032098;28;20251;-76
2021/05/31 02:39:26;;;;;;;4.53;2.53;;;10.30;67.90;;;;;;5037439;28;20434;-75
2021/05/31 02:41:52;;;;;;;5.00;2.80;;;10.30;67.90;;;;;;5043233;28;20952;-77
2021/05/31 02:44:18;;;;;;;6.27;3.10;;;10.30;67.60;;;;;;5036420;28;20192;-75
2021/05/31 02:46:43;;;;;;;7.27;3.57;;;10.20;67.90;;;;;;5052304;28;20937;-75
2021/05/31 02:49:09;;;;;;;4.97;3.00;;;10.20;67.70;;;;;;5036904;28;20934;-74
2021/05/31 02:51:37;;;;;;;5.50;2.87;;;10.20;68.00;;;;;;5047587;28;20195;-75
2021/05/31 02:54:04;;;;;;;5.40;3.07;;;10.10;68.30;;;;;;5052347;28;20200;-75
2021/05/31 02:56:29;;;;;;;8.53;3.20;;;10.10;68.30;;;;;;5048961;28;20470;-74
2021/05/31 02:58:55;;;;;;;5.30;2.90;;;10.10;68.30;;;;;;5045812;28;20477;-74
2021/05/31 03:01:21;;;;;;;6.73;3.13;;;10.20;70.70;;;;;;5034163;28;20181;-76
2021/05/31 03:03:46;;;;;;;4.23;2.70;;;10.10;69.70;;;;;;5040919;28;20294;-74
2021/05/31 03:06:12;;;;;;;5.90;3.33;;;10.00;69.50;;;;;;5033398;28;20220;-75
2021/05/31 03:08:38;;;;;;;7.47;3.10;;;10.00;70.40;;;;;;5035602;28;20189;-75
2021/05/31 03:11:04;;;;;;;4.63;3.10;;;9.90;70.50;;;;;;5032827;28;20563;-75
2021/05/31 03:13:30;;;;;;;4.17;2.60;;;9.90;70.20;;;;;;5033413;28;20197;-74
2021/05/31 03:15:55;;;;;;;6.90;3.63;;;9.90;70.20;;;;;;5046925;28;20434;-74
2021/05/31 03:18:21;;;;;;;4.33;2.97;;;9.90;69.80;;;;;;5052894;28;20208;-75
2021/05/31 03:20:47;;;;;;;4.50;2.97;;;9.90;69.80;;;;;;5051897;28;20189;-75
2021/05/31 03:23:13;;;;;;;7.10;3.00;;;9.90;70.20;;;;;;5048823;28;20185;-74
2021/05/31 03:25:39;;;;;;;5.40;3.20;;;9.90;70.40;;;;;;5018302;28;20429;-76
2021/05/31 03:28:05;;;;;;;5.77;3.30;;;9.90;70.10;;;;;;5053155;28;20505;-74
2021/05/31 03:30:32;;;;;;;4.80;3.10;;;9.90;70.40;;;;;;5052161;28;20987;-74
2021/05/31 03:32:58;;;;;;;4.70;3.07;;;9.90;71.10;;;;;;5047070;28;20492;-74
2021/05/31 03:35:25;;;;;;;4.40;3.10;;;9.90;71.60;;;;;;5052664;28;20901;-75
2021/05/31 03:37:51;;;;;;;6.73;3.03;;;9.90;71.40;;;;;;5031841;28;20586;-75
2021/05/31 03:40:21;;;;;;;4.73;3.10;;;9.90;71.40;;;;;;5046304;28;20426;-75
2021/05/31 03:42:54;;;;;;;4.40;2.90;;;9.90;71.30;;;;;;5053596;28;20295;-76
2021/05/31 03:45:22;;;;;;;5.57;2.93;;;9.80;71.30;;;;;;5052868;28;20737;-75
2021/05/31 03:47:48;;;;;;;6.23;3.63;;;9.80;71.10;;;;;;5042743;28;20942;-74
2021/05/31 03:50:15;;;;;;;5.73;3.23;;;9.80;71.80;;;;;;5044702;28;20424;-75
2021/05/31 03:52:40;;;;;;;5.30;3.40;;;9.70;73.20;;;;;;5042775;28;20453;-75
2021/05/31 03:55:08;;;;;;;4.13;3.77;;;9.70;73.60;;;;;;5039404;28;20925;-75
2021/05/31 03:57:36;;;;;;;11.80;3.40;;;9.70;73.60;;;;;;5040837;28;20292;-76
2021/05/31 04:00:04;;;;;;;6.87;3.10;;;9.70;73.70;;;;;;5045290;28;20827;-76
2021/05/31 04:02:30;;;;;;;7.10;3.90;;;9.70;73.70;;;;;;5020936;28;20847;-75
2021/05/31 04:04:57;;;;;;;5.90;2.90;;;9.70;74.00;;;;;;5029966;28;20408;-75
2021/05/31 04:12:53;;;;;;;6.90;3.67;;;9.70;74.00;;;;;;5049929;28;20410;-75
2021/05/31 04:15:19;;;;;;;5.70;3.07;;;9.80;74.30;;;;;;5043091;28;20423;-75
2021/05/31 04:17:45;;;;;;;7.50;3.53;;;9.80;74.60;;;;;;5045172;28;20239;-76
2021/05/31 04:20:12;;;;;;;7.47;3.90;;;9.80;74.90;;;;;;5041528;28;20415;-75
2021/05/31 04:22:38;;;;;;;5.93;3.10;;;9.80;75.10;;;;;;5038658;28;20421;-76
2021/05/31 04:25:04;;;;;;;7.17;3.90;;;9.80;75.20;;;;;;5034699;28;20425;-76
2021/05/31 04:27:30;;;;;;;6.63;3.80;;;9.80;75.70;;;;;;5013182;28;20198;-74
2021/05/31 04:29:56;;;;;;;7.90;4.10;;;9.80;75.80;;;;;;5040048;28;20519;-77
2021/05/31 04:32:22;;;;;;;5.27;3.20;;;9.80;76.10;;;;;;5037807;28;20451;-74
2021/05/31 04:34:48;;;;;;;6.57;4.00;;;9.80;76.10;;;;;;5049070;28;20435;-74
2021/05/31 04:37:13;;;;;;;6.43;3.20;;;9.90;76.20;;;;;;5027137;28;20225;-75
2021/05/31 04:39:39;;;;;;;7.37;3.90;;;9.90;75.90;;;;;;5029973;28;20569;-75
2021/05/31 04:42:06;;;;;;;5.60;3.30;;;10.10;75.70;;;;;;5033735;28;20264;-77
2021/05/31 04:44:33;;;;;;;5.93;3.47;;;10.10;75.40;;;;;;5043198;28;20378;-76
2021/05/31 04:46:59;;;;;;;5.67;3.50;;;10.20;75.20;;;;;;5046945;28;20533;-76
2021/05/31 04:49:25;;;;;;;10.53;4.20;;;10.30;75.20;;;;;;5051177;28;20431;-77
2021/05/31 04:51:51;;;;;;;7.10;3.73;;;10.30;74.60;;;;;;5038069;28;20431;-76
2021/05/31 04:54:17;;;;;;;8.13;4.43;;;10.40;74.00;;;;;;5041550;28;20292;-75
2021/05/31 04:56:43;;;;;;;5.60;3.20;;;10.40;73.20;;;;;;5047603;28;20522;-76
2021/05/31 04:59:08;;;;;;;9.13;4.13;;;10.50;72.40;;;;;;5041798;28;20497;-74
2021/05/31 05:01:34;;;;;;;8.27;3.77;;;10.60;72.90;;;;;;5044541;28;20634;-76
2021/05/31 05:04:01;;;;;;;9.60;4.17;;;10.60;72.40;;;;;;5031599;28;20260;-76
2021/05/31 05:06:27;;;;;;;9.77;4.50;;;10.70;72.30;;;;;;5046701;28;20486;-75
2021/05/31 05:08:54;;;;;;;7.57;4.20;;;10.70;72.10;;;;;;5041571;28;20459;-75
2021/05/31 05:11:20;;;;;;;10.23;4.47;;;10.80;71.70;;;;;;5047213;28;20180;-75
2021/05/31 05:13:46;;;;;;;9.27;4.77;;;10.90;72.30;;;;;;5041216;28;20918;-77
2021/05/31 05:16:12;;;;;;;10.20;4.33;;;10.90;72.40;;;;;;5047958;28;20501;-71
2021/05/31 05:18:45;;;;;;;9.17;5.37;;;11.00;72.10;;;;;;5042186;28;20188;-73
2021/05/31 05:21:10;;;;;;;9.20;4.40;;;11.10;72.00;;;;;;5031558;28;20652;-72
2021/05/31 05:23:37;;;;;;;6.43;4.50;;;11.10;71.70;;;;;;5031602;28;20503;-73
2021/05/31 05:26:03;;;;;;;7.30;4.60;;;11.20;70.80;;;;;;5023502;28;20205;-71
2021/05/31 05:28:28;;;;;;;7.80;4.53;;;11.30;70.40;;;;;;5046036;28;20492;-72
2021/05/31 05:30:54;;;;;;;9.77;4.13;;;11.30;70.70;;;;;;5035941;28;20192;-72
2021/05/31 05:33:20;;;;;;;6.27;4.03;;;11.40;70.40;;;;;;5031078;28;20601;-72
2021/05/31 05:35:56;;;;;;;6.53;4.27;;;11.50;69.80;;;;;;5050702;28;20204;-71
2021/05/31 05:43:47;;;;;;;9.50;5.30;;;11.80;69.50;;;;;;5021003;28;20255;-74
2021/05/31 05:48:52;;;;;;;6.43;3.93;;;12.10;69.20;;;;;;5050800;28;20427;-72
2021/05/31 05:51:21;;;;;;;7.43;4.27;;;12.30;67.70;;;;;;5051528;28;20423;-72
2021/05/31 05:53:48;;;;;;;7.30;3.93;;;12.50;66.60;;;;;;5050249;28;20427;-73
2021/05/31 05:56:19;;;;;;;8.70;4.80;;;12.70;65.10;;;;;;5043912;28;20467;-72
2021/05/31 05:58:46;;;;;;;12.03;4.60;;;12.90;64.40;;;;;;5030538;28;20448;-76
2021/05/31 06:01:13;;;;;;;8.60;4.30;;;13.10;63.20;;;;;;5026841;28;20427;-77
2021/05/31 06:03:39;;;;;;;9.63;4.83;;;13.20;63.10;;;;;;5042926;28;20454;-77
2021/05/31 06:06:06;;;;;;;10.43;4.70;;;13.20;63.20;;;;;;5052870;28;20423;-77
2021/05/31 06:08:32;;;;;;;10.70;5.20;;;13.30;63.10;;;;;;5038517;28;20465;-77
2021/05/31 06:10:58;;;;;;;10.30;4.80;;;13.40;62.60;;;;;;5050154;28;20450;-76
2021/05/31 06:13:25;;;;;;;10.67;5.33;;;13.30;63.20;;;;;;5042802;28;20478;-77
2021/05/31 06:15:52;;;;;;;15.33;5.77;;;13.30;62.30;;;;;;5021675;28;20427;-75
2021/05/31 06:18:18;;;;;;;9.30;4.90;;;13.20;62.80;;;;;;5046753;28;20502;-75
2021/05/31 06:20:43;;;;;;;9.27;4.80;;;13.30;62.20;;;;;;5047936;28;20538;-75
2021/05/31 06:23:09;;;;;;;11.30;4.90;;;13.20;62.20;;;;;;5039293;28;20428;-73
2021/05/31 06:25:36;;;;;;;9.90;5.33;;;13.20;62.20;;;;;;5028644;28;20190;-75
2021/05/31 06:28:04;;;;;;;9.40;5.20;;;13.30;61.70;;;;;;5060374;28;20702;-77
2021/05/31 06:30:30;;;;;;;13.93;5.83;;;13.50;61.50;;;;;;5046502;28;20442;-74
2021/05/31 06:32:56;;;;;;;9.07;5.20;;;13.50;60.90;;;;;;5034784;28;20428;-76
2021/05/31 06:35:24;;;;;;;10.83;5.50;;;13.50;61.00;;;;;;5025426;28;20506;-75
2021/05/31 06:37:51;;;;;;;8.13;4.70;;;13.40;61.30;;;;;;5044973;28;20491;-75
2021/05/31 06:40:18;;;;;;;11.33;4.30;;;13.40;61.60;;;;;;5046474;28;20418;-76
2021/05/31 06:42:46;;;;;;;8.33;4.83;;;13.60;61.50;;;;;;5045420;28;20420;-77
2021/05/31 06:45:21;;;;;;;18.17;5.50;;;13.80;61.00;;;;;;5032431;28;20459;-76
2021/05/31 06:47:46;;;;;;;6.43;4.10;;;13.90;60.60;;;;;;5040903;28;20504;-75
2021/05/31 06:50:13;;;;;;;10.87;4.47;;;14.00;60.30;;;;;;5037166;28;20459;-74
2021/05/31 06:52:38;;;;;;;9.83;4.33;;;14.10;59.70;;;;;;5043217;28;20976;-76
2021/05/31 06:55:06;;;;;;;13.23;4.37;;;14.10;59.70;;;;;;5046270;28;20440;-76
2021/05/31 06:57:31;;;;;;;8.17;4.20;;;14.20;59.20;;;;;;5043166;28;20212;-74
2021/05/31 06:59:58;;;;;;;29.90;5.47;;;14.20;58.90;;;;;;5035419;28;20431;-76
2021/05/31 07:02:24;;;;;;;7.63;4.70;;;14.20;59.20;;;;;;5032475;28;20193;-76
2021/05/31 07:04:51;;;;;;;6.00;3.60;;;14.30;58.50;;;;;;5034887;28;20461;-76
2021/05/31 07:07:20;;;;;;;7.33;3.83;;;14.40;58.00;;;;;;5053267;28;20204;-77
2021/05/31 07:09:48;;;;;;;5.47;3.90;;;14.50;57.30;;;;;;5034922;28;20558;-75
2021/05/31 07:12:17;;;;;;;5.40;3.60;;;14.60;56.20;;;;;;5044179;28;20463;-76
2021/05/31 07:14:46;;;;;;;6.87;4.27;;;14.80;56.00;;;;;;5035407;28;20464;-76
2021/05/31 07:17:13;;;;;;;4.00;3.23;;;14.90;55.80;;;;;;5031353;28;20486;-77
2021/05/31 07:19:44;;;;;;;7.43;3.67;;;15.00;54.50;;;;;;5037916;28;20428;-75
2021/05/31 07:22:21;;;;;;;10.10;3.70;;;15.10;54.40;;;;;;5052607;28;21244;-75
2021/05/31 07:24:47;;;;;;;5.87;3.20;;;15.20;52.10;;;;;;5034723;28;20430;-76
2021/05/31 07:27:13;;;;;;;3.53;2.93;;;15.30;51.40;;;;;;5032594;28;20448;-76
2021/05/31 07:29:39;;;;;;;5.40;3.17;;;15.30;51.20;;;;;;5051975;28;20220;-75
2021/05/31 07:32:06;;;;;;;7.83;3.93;;;15.40;51.20;;;;;;5036723;28;20229;-76
2021/05/31 07:34:32;;;;;;;4.13;2.90;;;15.50;51.60;;;;;;5031614;28;20194;-76
2021/05/31 07:36:58;;;;;;;4.80;3.00;;;15.60;49.30;;;;;;5033853;28;20543;-76
2021/05/31 07:39:24;;;;;;;4.00;2.73;;;15.70;47.90;;;;;;5026105;28;20474;-73
2021/05/31 07:41:50;;;;;;;4.77;3.33;;;15.70;48.90;;;;;;5054478;28;20443;-74
2021/05/31 07:44:16;;;;;;;9.43;3.43;;;15.80;49.40;;;;;;5028669;28;20873;-75
2021/05/31 07:46:42;;;;;;;4.40;3.67;;;15.90;47.10;;;;;;5052792;28;20212;-77
2021/05/31 07:49:08;;;;;;;4.87;3.20;;;15.90;45.80;;;;;;5051286;28;20195;-76
2021/05/31 07:51:34;;;;;;;3.57;2.83;;;15.90;45.80;;;;;;5048801;28;20197;-74
2021/05/31 07:54:00;;;;;;;3.77;2.80;;;16.00;46.70;;;;;;5051407;28;20425;-76
2021/05/31 07:56:27;;;;;;;4.97;3.13;;;16.10;47.40;;;;;;5039872;28;20467;-76
2021/05/31 07:58:56;;;;;;;4.40;3.10;;;16.10;47.30;;;;;;5039909;28;20481;-75
2021/05/31 08:01:23;;;;;;;3.87;3.20;;;16.10;47.50;;;;;;5038772;28;20942;-76
2021/05/31 08:03:49;;;;;;;5.83;2.93;;;16.10;46.90;;;;;;5052358;28;20429;-77
2021/05/31 08:06:15;;;;;;;3.97;2.87;;;16.00;47.30;;;;;;5037610;28;20530;-75
2021/05/31 08:08:42;;;;;;;3.60;3.33;;;16.10;47.40;;;;;;5032719;28;20197;-75
2021/05/31 08:11:09;;;;;;;6.00;3.53;;;16.20;46.90;;;;;;5047313;28;20430;-77
2021/05/31 08:13:35;;;;;;;4.93;3.20;;;16.30;46.90;;;;;;5048357;28;21207;-78
2021/05/31 08:16:02;;;;;;;6.13;3.60;;;16.40;46.50;;;;;;5041168;28;20466;-79
2021/05/31 08:18:27;;;;;;;5.03;3.30;;;16.60;45.70;;;;;;5033255;28;20439;-78
2021/05/31 08:20:53;;;;;;;4.10;3.20;;;16.60;45.70;;;;;;5033122;28;20433;-75
2021/05/31 08:23:19;;;;;;;6.63;3.80;;;16.60;44.90;;;;;;5042723;28;20215;-76
2021/05/31 08:25:45;;;;;;;4.10;3.00;;;16.70;43.50;;;;;;5025768;28;20432;-78
2021/05/31 08:28:11;;;;;;;7.83;3.50;;;16.80;43.10;;;;;;5040423;28;20209;-76
2021/05/31 08:30:40;;;;;;;4.57;3.27;;;16.80;42.60;;;;;;5046243;28;20440;-78
2021/05/31 08:33:06;;;;;;;5.80;3.57;;;16.60;43.40;;;;;;5053702;28;20260;-77
2021/05/31 08:35:43;;;;;;;4.27;3.30;;;16.60;44.10;;;;;;5038449;28;20481;-78
2021/05/31 08:38:10;;;;;;;6.57;3.30;;;16.70;44.50;;;;;;5042149;28;21019;-76
2021/05/31 08:40:37;;;;;;;6.70;3.30;;;16.70;44.60;;;;;;5038136;28;20457;-78
2021/05/31 08:43:03;;;;;;;5.43;2.93;;;16.80;43.40;;;;;;5031799;28;20427;-76
2021/05/31 08:45:31;;;;;;;5.47;2.93;;;16.80;43.50;;;;;;5032528;28;20456;-78
2021/05/31 08:47:58;;;;;;;3.70;2.87;;;16.80;43.40;;;;;;5051976;28;20447;-77
2021/05/31 08:50:29;;;;;;;4.17;2.83;;;16.90;42.80;;;;;;5034055;28;20430;-77
2021/05/31 08:52:55;;;;;;;4.70;3.30;;;17.00;42.20;;;;;;5033159;28;20430;-75
2021/05/31 08:55:23;;;;;;;5.37;3.30;;;17.00;41.10;;;;;;5043799;28;20431;-76
2021/05/31 08:57:50;;;;;;;4.40;3.07;;;17.00;41.40;;;;;;5030368;28;20479;-77
2021/05/31 09:00:19;;;;;;;6.67;2.90;;;17.00;41.40;;;;;;5048963;28;20448;-78
2021/05/31 09:02:45;;;;;;;3.20;2.93;;;16.90;41.20;;;;;;5039004;28;20462;-77
2021/05/31 09:05:11;;;;;;;4.47;2.93;;;17.00;41.80;;;;;;5032365;28;20434;-78
2021/05/31 09:07:37;;;;;;;6.97;3.17;;;17.00;41.80;;;;;;5032377;28;20954;-76
2021/05/31 09:10:06;;;;;;;4.67;3.17;;;17.00;42.80;;;;;;5036424;28;20199;-76
2021/05/31 09:12:36;;;;;;;7.00;3.13;;;17.10;43.00;;;;;;5034616;28;20430;-78
2021/05/31 09:15:10;;;;;;;6.03;3.60;;;17.10;42.70;;;;;;5041655;28;20436;-77
2021/05/31 09:17:40;;;;;;;5.13;3.13;;;17.10;42.80;;;;;;5035715;28;20482;-78
2021/05/31 09:20:08;;;;;;;10.13;3.37;;;17.10;42.00;;;;;;5031213;28;20926;-78
2021/05/31 09:22:44;;;;;;;3.60;2.80;;;17.20;41.80;;;;;;5031389;28;20835;-77
2021/05/31 09:25:10;;;;;;;4.80;3.53;;;17.20;42.00;;;;;;5033192;28;20506;-78
2021/05/31 09:27:36;;;;;;;3.97;3.03;;;17.20;41.60;;;;;;5047697;28;20481;-77
2021/05/31 09:30:07;;;;;;;4.53;2.83;;;17.20;41.90;;;;;;5050278;28;20455;-76
2021/05/31 09:32:33;;;;;;;3.77;2.83;;;17.20;41.20;;;;;;5048093;28;20239;-79
2021/05/31 09:35:07;;;;;;;6.20;2.83;;;17.20;40.60;;;;;;5040948;28;21229;-75
2021/05/31 09:37:42;;;;;;;4.87;3.67;;;17.30;41.20;;;;;;5037419;28;20484;-76
2021/05/31 09:40:08;;;;;;;5.07;3.10;;;17.30;41.40;;;;;;5031329;28;20489;-77
2021/05/31 09:42:34;;;;;;;5.43;3.10;;;17.40;42.00;;;;;;5051301;28;20458;-78
2021/05/31 09:45:02;;;;;;;5.03;3.43;;;17.40;41.20;;;;;;5039500;28;20436;-76
2021/05/31 09:47:30;;;;;;;4.93;3.00;;;17.50;41.80;;;;;;5036678;28;20231;-77
2021/05/31 09:49:56;;;;;;;5.07;3.20;;;17.40;41.90;;;;;;5036826;28;20494;-77
2021/05/31 09:52:22;;;;;;;4.17;3.33;;;17.40;41.90;;;;;;5034292;28;20431;-75
2021/05/31 09:54:50;;;;;;;6.63;3.40;;;17.40;41.90;;;;;;5043716;28;20674;-74
2021/05/31 09:57:25;;;;;;;4.50;2.97;;;17.50;42.00;;;;;;5044901;28;20477;-77
2021/05/31 10:00:05;;;;;;;3.80;3.27;;;17.60;41.60;;;;;;5052277;28;20490;-77
2021/05/31 10:03:07;;;;;;;5.77;3.50;;;17.70;40.70;;;;;;5056543;28;20439;-78
2021/05/31 10:05:42;;;;;;;4.00;3.00;;;17.90;40.60;;;;;;5025130;28;20434;-77
2021/05/31 10:10:42;;;;;;;3.90;3.33;;;18.20;39.80;;;;;;5029093;28;20421;-78
2021/05/31 10:13:08;;;;;;;4.53;3.20;;;18.30;39.40;;;;;;5036480;28;20458;-77
2021/05/31 10:15:39;;;;;;;8.43;3.57;;;18.10;39.90;;;;;;5035797;28;20462;-77
2021/05/31 10:18:05;;;;;;;5.87;3.40;;;18.40;39.50;;;;;;5040082;28;20554;-78
2021/05/31 10:20:32;;;;;;;4.10;3.27;;;18.90;38.30;;;;;;5036866;28;20423;-77
2021/05/31 10:22:59;;;;;;;6.20;3.93;;;19.20;37.90;;;;;;5036479;28;20921;-77
2021/05/31 10:25:26;;;;;;;7.17;3.40;;;19.50;37.10;;;;;;5034105;28;20427;-76
2021/05/31 10:28:11;;;;;;;4.90;4.03;;;19.80;37.40;;;;;;5033830;28;20444;-78
2021/05/31 10:30:42;;;;;;;6.67;3.33;;;19.90;37.20;;;;;;5032590;28;20423;-78
2021/05/31 10:33:15;;;;;;;4.47;3.40;;;19.90;35.30;;;;;;5027911;28;20455;-76
2021/05/31 10:35:41;;;;;;;4.00;3.17;;;19.70;34.50;;;;;;5029903;28;20430;-77
2021/05/31 10:38:17;;;;;;;4.43;3.20;;;19.80;35.90;;;;;;5044491;28;20466;-79
2021/05/31 10:40:45;;;;;;;6.03;4.10;;;19.80;36.40;;;;;;5041595;28;20915;-76
2021/05/31 10:43:13;;;;;;;5.57;3.10;;;20.10;37.00;;;;;;5048857;28;20510;-75
2021/05/31 10:45:40;;;;;;;5.67;3.67;;;20.20;36.30;;;;;;5049495;28;20423;-78
2021/05/31 10:48:13;;;;;;;6.90;3.63;;;20.20;36.60;;;;;;5043596;28;20543;-76
2021/05/31 10:50:43;;;;;;;4.40;3.23;;;20.10;36.40;;;;;;5035801;28;20476;-75
2021/05/31 10:53:32;;;;;;;4.40;3.40;;;20.00;36.60;;;;;;5044977;28;20917;-75
2021/05/31 10:56:02;;;;;;;5.60;3.20;;;19.30;38.20;;;;;;5023413;28;20779;-78
2021/05/31 10:58:45;;;;;;;6.93;3.40;;;19.30;38.30;;;;;;5045788;28;20439;-77
2021/05/31 11:01:13;;;;;;;4.90;3.33;;;19.40;37.90;;;;;;5043632;28;20479;-75
2021/05/31 11:03:51;;;;;;;5.80;3.90;;;19.30;38.30;;;;;;5044151;28;20948;-77
2021/05/31 11:06:19;;;;;;;8.07;3.27;;;19.20;38.70;;;;;;5043426;28;20432;-75
2021/05/31 11:08:54;;;;;;;5.53;3.60;;;19.10;39.40;;;;;;5048280;28;20448;-76
2021/05/31 11:11:30;;;;;;;4.77;3.10;;;19.30;39.00;;;;;;5039000;28;20908;-77
2021/05/31 11:13:57;;;;;;;8.93;4.40;;;19.60;38.80;;;;;;5043949;28;20498;-77
2021/05/31 11:16:23;;;;;;;4.97;3.53;;;19.80;37.60;;;;;;5035434;28;20981;-76
2021/05/31 11:18:58;;;;;;;4.73;3.67;;;19.90;37.80;;;;;;5040498;28;20425;-74
2021/05/31 11:21:28;;;;;;;4.07;3.37;;;20.20;37.50;;;;;;5031224;28;20545;-76
2021/05/31 11:24:00;;;;;;;5.03;3.73;;;20.70;36.70;;;;;;5035493;28;20759;-78
2021/05/31 11:26:28;;;;;;;4.07;3.53;;;21.00;35.90;;;;;;5019696;28;20445;-78
2021/05/31 11:28:55;;;;;;;4.80;3.40;;;21.20;35.10;;;;;;5032360;28;20963;-76
2021/05/31 11:31:22;;;;;;;5.10;3.20;;;21.20;34.30;;;;;;5032847;28;21173;-77
2021/05/31 11:33:54;;;;;;;5.00;3.63;;;20.90;35.10;;;;;;5029426;28;20428;-75
2021/05/31 11:36:36;;;;;;;4.50;2.87;;;21.00;35.50;;;;;;5051069;28;20473;-77
2021/05/31 11:39:07;;;;;;;5.33;3.90;;;21.00;34.90;;;;;;5038255;28;20846;-75
2021/05/31 11:41:42;;;;;;;4.30;3.60;;;21.00;35.60;;;;;;5040984;28;20425;-78
2021/05/31 11:44:14;;;;;;;4.70;3.00;;;21.20;34.70;;;;;;5037349;28;20428;-77
2021/05/31 11:46:52;;;;;;;4.80;3.33;;;21.10;34.80;;;;;;5039276;28;20441;-78
2021/05/31 11:49:19;;;;;;;4.37;3.50;;;21.10;34.50;;;;;;5051901;28;20920;-76
2021/05/31 11:52:09;;;;;;;5.00;3.40;;;20.70;34.40;;;;;;5038084;28;20414;-77
2021/05/31 11:54:38;;;;;;;6.27;3.87;;;21.00;34.70;;;;;;5041444;28;20509;-77
2021/05/31 11:57:08;;;;;;;3.70;2.70;;;21.60;34.10;;;;;;5038621;28;20871;-77
2021/05/31 11:59:43;;;;;;;3.03;2.63;;;22.20;32.50;;;;;;5039601;28;20813;-77
2021/05/31 12:02:17;;;;;;;6.67;3.80;;;22.20;32.40;;;;;;5033527;28;20768;-78
2021/05/31 12:04:45;;;;;;;6.17;4.20;;;22.40;32.80;;;;;;5045358;28;20410;-76
2021/05/31 12:07:13;;;;;;;3.97;3.50;;;22.50;32.00;;;;;;5042156;28;20443;-76
2021/05/31 12:09:42;;;;;;;11.60;6.50;;;21.50;33.20;;;;;;5041491;28;20438;-76
2021/05/31 12:12:19;;;;;;;6.30;3.90;;;21.40;33.70;;;;;;5033613;28;20858;-77
2021/05/31 12:14:50;;;;;;;5.20;3.47;;;21.80;33.30;;;;;;5047560;28;20502;-77
2021/05/31 12:17:17;;;;;;;4.63;3.43;;;22.40;32.30;;;;;;5032613;28;21028;-76
2021/05/31 12:19:45;;;;;;;5.50;3.90;;;22.20;32.80;;;;;;5032599;28;20423;-76
2021/05/31 12:22:11;;;;;;;4.27;3.13;;;21.50;33.10;;;;;;5032912;28;20422;-76
2021/05/31 12:24:42;;;;;;;4.00;3.20;;;21.20;33.60;;;;;;5027065;28;20436;-77
2021/05/31 12:27:08;;;;;;;5.47;3.03;;;21.90;32.00;;;;;;5038084;28;20445;-77
2021/05/31 12:29:46;;;;;;;6.67;3.30;;;22.20;31.20;;;;;;5039671;28;20437;-78
2021/05/31 12:32:14;;;;;;;4.60;3.13;;;22.60;30.50;;;;;;5049812;28;20453;-77
2021/05/31 12:34:41;;;;;;;6.63;4.60;;;22.90;29.00;;;;;;5022640;28;20470;-78
2021/05/31 12:37:10;;;;;;;4.70;3.80;;;22.70;28.90;;;;;;5048597;28;21053;-78
2021/05/31 12:39:41;;;;;;;6.23;3.90;;;22.80;29.00;;;;;;5041699;28;20437;-76
2021/05/31 12:42:06;;;;;;;3.40;2.77;;;23.20;28.40;;;;;;5042018;28;20419;-77
2021/05/31 12:44:32;;;;;;;4.80;2.70;;;22.40;28.30;;;;;;5045812;28;20791;-77
2021/05/31 12:47:16;;;;;;;4.07;3.03;;;22.10;29.30;;;;;;5034023;28;20242;-77
2021/05/31 12:49:46;;;;;;;3.87;2.80;;;22.50;28.80;;;;;;5032238;28;20182;-78
2021/05/31 12:52:13;;;;;;;3.40;2.90;;;23.20;28.90;;;;;;5032006;28;20441;-76
2021/05/31 12:54:40;;;;;;;5.10;3.00;;;23.60;27.80;;;;;;5033484;28;20933;-78
2021/05/31 12:57:11;;;;;;;4.10;3.03;;;23.10;28.60;;;;;;5048845;28;20636;-76
2021/05/31 12:59:39;;;;;;;4.30;2.90;;;23.90;28.30;;;;;;5037724;28;20412;-78
2021/05/31 13:02:16;;;;;;;2.93;2.77;;;24.60;28.30;;;;;;5039420;28;20457;-76
2021/05/31 13:04:42;;;;;;;4.27;3.00;;;25.00;27.30;;;;;;5038996;28;21007;-77
2021/05/31 13:07:17;;;;;;;4.37;2.73;;;25.40;26.80;;;;;;5043166;28;20492;-77
2021/05/31 13:09:44;;;;;;;4.10;2.90;;;26.10;25.20;;;;;;5034514;28;20194;-77
2021/05/31 13:12:11;;;;;;;3.13;2.57;;;26.60;23.90;;;;;;5051893;28;21038;-74